Terminal Aerodrome Forecast
Issued by NWS

Home | Current Version | Previous Version | Text Only | Print | Product List | Glossary On
Versions: 1 2 3 4 5 6 7 8 9 10 11 12 13 14
000
FTUS42 TJSJ 291131
TAFJMZ
TAF
TJMZ 291131Z 2912/3012 11011KT P6SM SKC
     FM291430 VRB06KT P6SM SCT040
     FM291800 27010KT P6SM VCTS SCT025CB BKN040
     FM292200 06006KT P6SM SCT025 SCT040
      AMD NOT SKED TIL 291500=

USA.gov is the U.S. government's official web portal to all federal, state and local government web resources and services.